sensor_id;sensor_type;location;lat;lon;timestamp;P1;durP1;ratioP1;P2;durP2;ratioP2
34978;SDS011;21185;50.978;13.720;2022-09-21T00:04:50;4.13;;;1.35;;
34978;SDS011;21185;50.978;13.720;2022-09-21T00:09:54;3.08;;;1.20;;
34978;SDS011;21185;50.978;13.720;2022-09-21T00:14:56;2.70;;;1.60;;
34978;SDS011;21185;50.978;13.720;2022-09-21T00:19:59;3.00;;;1.48;;
34978;SDS011;21185;50.978;13.720;2022-09-21T00:25:06;2.73;;;1.53;;
34978;SDS011;21185;50.978;13.720;2022-09-21T00:30:09;5.53;;;2.50;;
34978;SDS011;21185;50.978;13.720;2022-09-21T00:35:12;4.80;;;1.77;;
34978;SDS011;21185;50.978;13.720;2022-09-21T00:40:13;8.55;;;1.50;;
34978;SDS011;21185;50.978;13.720;2022-09-21T00:45:15;3.35;;;1.30;;
34978;SDS011;21185;50.978;13.720;2022-09-21T00:50:23;5.40;;;1.60;;
34978;SDS011;21185;50.978;13.720;2022-09-21T00:55:29;2.13;;;1.40;;
34978;SDS011;21185;50.978;13.720;2022-09-21T01:00:35;3.30;;;1.65;;
34978;SDS011;21185;50.978;13.720;2022-09-21T01:05:38;2.72;;;1.60;;
34978;SDS011;21185;50.978;13.720;2022-09-21T01:21:20;2.72;;;1.38;;
34978;SDS011;21185;50.978;13.720;2022-09-21T01:26:42;2.67;;;1.15;;
34978;SDS011;21185;50.978;13.720;2022-09-21T01:32:18;2.28;;;1.20;;
34978;SDS011;21185;50.978;13.720;2022-09-21T01:37:44;1.80;;;1.35;;
34978;SDS011;21185;50.978;13.720;2022-09-21T01:42:51;2.67;;;1.30;;
34978;SDS011;21185;50.978;13.720;2022-09-21T01:47:57;2.47;;;1.35;;
34978;SDS011;21185;50.978;13.720;2022-09-21T01:53:03;3.25;;;0.98;;
34978;SDS011;21185;50.978;13.720;2022-09-21T01:58:16;2.97;;;1.50;;
34978;SDS011;21185;50.978;13.720;2022-09-21T02:03:30;4.00;;;1.38;;
34978;SDS011;21185;50.978;13.720;2022-09-21T02:08:37;2.10;;;1.27;;
34978;SDS011;21185;50.978;13.720;2022-09-21T02:13:41;2.33;;;1.17;;
34978;SDS011;21185;50.978;13.720;2022-09-21T02:18:53;3.75;;;1.42;;
34978;SDS011;21185;50.978;13.720;2022-09-21T02:24:23;2.78;;;1.58;;
34978;SDS011;21185;50.978;13.720;2022-09-21T02:29:34;3.33;;;1.55;;
34978;SDS011;21185;50.978;13.720;2022-09-21T02:34:46;2.05;;;1.00;;
34978;SDS011;21185;50.978;13.720;2022-09-21T02:40:18;2.20;;;1.30;;
34978;SDS011;21185;50.978;13.720;2022-09-21T02:45:26;1.70;;;1.02;;
34978;SDS011;21185;50.978;13.720;2022-09-21T02:50:56;3.88;;;1.42;;
34978;SDS011;21185;50.978;13.720;2022-09-21T02:56:04;5.90;;;2.00;;
34978;SDS011;21185;50.978;13.720;2022-09-21T03:01:09;4.00;;;1.63;;
34978;SDS011;21185;50.978;13.720;2022-09-21T03:06:14;3.83;;;1.73;;
34978;SDS011;21185;50.978;13.720;2022-09-21T03:11:16;4.10;;;1.52;;
34978;SDS011;21185;50.978;13.720;2022-09-21T03:16:19;3.78;;;1.98;;
34978;SDS011;21185;50.978;13.720;2022-09-21T03:21:22;3.42;;;1.75;;
34978;SDS011;21185;50.978;13.720;2022-09-21T03:26:24;4.75;;;2.10;;
34978;SDS011;21185;50.978;13.720;2022-09-21T03:31:25;5.22;;;1.70;;
34978;SDS011;21185;50.978;13.720;2022-09-21T03:36:27;7.35;;;2.33;;
34978;SDS011;21185;50.978;13.720;2022-09-21T03:41:29;6.47;;;2.58;;
34978;SDS011;21185;50.978;13.720;2022-09-21T03:46:31;5.82;;;2.55;;
34978;SDS011;21185;50.978;13.720;2022-09-21T03:51:36;5.25;;;2.45;;
34978;SDS011;21185;50.978;13.720;2022-09-21T03:56:38;4.32;;;2.50;;
34978;SDS011;21185;50.978;13.720;2022-09-21T04:01:41;4.93;;;2.25;;
34978;SDS011;21185;50.978;13.720;2022-09-21T04:06:43;6.75;;;2.40;;
34978;SDS011;21185;50.978;13.720;2022-09-21T04:11:46;4.78;;;2.25;;
34978;SDS011;21185;50.978;13.720;2022-09-21T04:16:48;5.78;;;2.60;;
34978;SDS011;21185;50.978;13.720;2022-09-21T04:21:52;4.43;;;2.40;;
34978;SDS011;21185;50.978;13.720;2022-09-21T04:26:56;6.50;;;2.88;;
34978;SDS011;21185;50.978;13.720;2022-09-21T04:31:58;7.30;;;2.70;;
34978;SDS011;21185;50.978;13.720;2022-09-21T04:37:00;6.30;;;2.70;;
34978;SDS011;21185;50.978;13.720;2022-09-21T04:42:03;4.53;;;2.42;;
34978;SDS011;21185;50.978;13.720;2022-09-21T04:47:06;6.68;;;2.55;;
34978;SDS011;21185;50.978;13.720;2022-09-21T04:52:09;8.30;;;2.83;;
34978;SDS011;21185;50.978;13.720;2022-09-21T04:57:11;7.78;;;3.58;;
34978;SDS011;21185;50.978;13.720;2022-09-21T05:02:14;7.88;;;2.92;;
34978;SDS011;21185;50.978;13.720;2022-09-21T05:07:40;7.95;;;3.38;;
34978;SDS011;21185;50.978;13.720;2022-09-21T05:12:42;6.18;;;2.78;;
34978;SDS011;21185;50.978;13.720;2022-09-21T05:17:44;7.72;;;2.80;;
34978;SDS011;21185;50.978;13.720;2022-09-21T05:22:47;5.65;;;2.92;;
34978;SDS011;21185;50.978;13.720;2022-09-21T05:27:49;8.23;;;3.08;;
34978;SDS011;21185;50.978;13.720;2022-09-21T05:32:55;6.15;;;3.47;;
34978;SDS011;21185;50.978;13.720;2022-09-21T05:38:12;8.23;;;3.30;;
34978;SDS011;21185;50.978;13.720;2022-09-21T05:43:18;8.00;;;3.03;;
34978;SDS011;21185;50.978;13.720;2022-09-21T05:48:27;6.38;;;2.88;;
34978;SDS011;21185;50.978;13.720;2022-09-21T06:04:10;6.70;;;3.13;;
34978;SDS011;21185;50.978;13.720;2022-09-21T06:09:13;5.97;;;2.95;;
34978;SDS011;21185;50.978;13.720;2022-09-21T06:14:15;6.65;;;3.35;;
34978;SDS011;21185;50.978;13.720;2022-09-21T06:19:17;5.43;;;3.50;;
34978;SDS011;21185;50.978;13.720;2022-09-21T06:24:19;11.13;;;4.13;;
34978;SDS011;21185;50.978;13.720;2022-09-21T06:29:23;4.82;;;2.90;;
34978;SDS011;21185;50.978;13.720;2022-09-21T06:34:25;11.70;;;4.18;;
34978;SDS011;21185;50.978;13.720;2022-09-21T06:39:27;7.30;;;3.60;;
34978;SDS011;21185;50.978;13.720;2022-09-21T06:44:29;11.98;;;3.70;;
34978;SDS011;21185;50.978;13.720;2022-09-21T06:49:31;6.38;;;3.70;;
34978;SDS011;21185;50.978;13.720;2022-09-21T06:54:33;6.50;;;4.00;;
34978;SDS011;21185;50.978;13.720;2022-09-21T06:59:35;10.43;;;4.00;;
34978;SDS011;21185;50.978;13.720;2022-09-21T07:04:37;7.50;;;3.65;;
34978;SDS011;21185;50.978;13.720;2022-09-21T07:09:39;8.95;;;4.30;;
34978;SDS011;21185;50.978;13.720;2022-09-21T07:15:01;6.07;;;3.30;;
34978;SDS011;21185;50.978;13.720;2022-09-21T07:20:04;7.80;;;3.53;;
34978;SDS011;21185;50.978;13.720;2022-09-21T07:25:09;10.25;;;3.30;;
34978;SDS011;21185;50.978;13.720;2022-09-21T07:30:11;6.82;;;3.63;;
34978;SDS011;21185;50.978;13.720;2022-09-21T07:35:13;6.80;;;3.45;;
34978;SDS011;21185;50.978;13.720;2022-09-21T07:40:15;7.55;;;4.10;;
34978;SDS011;21185;50.978;13.720;2022-09-21T07:45:17;6.90;;;3.58;;
34978;SDS011;21185;50.978;13.720;2022-09-21T07:50:19;10.80;;;3.47;;
34978;SDS011;21185;50.978;13.720;2022-09-21T07:55:22;10.18;;;4.18;;
34978;SDS011;21185;50.978;13.720;2022-09-21T08:00:24;5.57;;;3.60;;
34978;SDS011;21185;50.978;13.720;2022-09-21T08:05:26;7.50;;;3.72;;
34978;SDS011;21185;50.978;13.720;2022-09-21T08:10:28;10.52;;;3.38;;
34978;SDS011;21185;50.978;13.720;2022-09-21T08:15:32;5.10;;;3.17;;
34978;SDS011;21185;50.978;13.720;2022-09-21T08:20:57;5.90;;;3.15;;
34978;SDS011;21185;50.978;13.720;2022-09-21T08:26:01;7.07;;;3.70;;
34978;SDS011;21185;50.978;13.720;2022-09-21T08:31:06;6.85;;;3.42;;
34978;SDS011;21185;50.978;13.720;2022-09-21T08:36:10;9.75;;;4.40;;
34978;SDS011;21185;50.978;13.720;2022-09-21T08:41:19;11.00;;;3.58;;
34978;SDS011;21185;50.978;13.720;2022-09-21T08:46:26;7.78;;;3.22;;
34978;SDS011;21185;50.978;13.720;2022-09-21T08:51:33;7.20;;;2.90;;
34978;SDS011;21185;50.978;13.720;2022-09-21T08:56:38;4.30;;;2.53;;
34978;SDS011;21185;50.978;13.720;2022-09-21T09:12:35;5.80;;;2.85;;
34978;SDS011;21185;50.978;13.720;2022-09-21T09:23:15;4.32;;;1.92;;
34978;SDS011;21185;50.978;13.720;2022-09-21T09:28:29;7.28;;;2.92;;
34978;SDS011;21185;50.978;13.720;2022-09-21T09:33:41;5.25;;;1.83;;
34978;SDS011;21185;50.978;13.720;2022-09-21T09:39:00;4.65;;;2.10;;
34978;SDS011;21185;50.978;13.720;2022-09-21T09:44:21;4.68;;;1.52;;
34978;SDS011;21185;50.978;13.720;2022-09-21T09:55:14;4.82;;;1.83;;
34978;SDS011;21185;50.978;13.720;2022-09-21T10:00:21;3.20;;;1.38;;
34978;SDS011;21185;50.978;13.720;2022-09-21T10:05:24;2.08;;;1.40;;
34978;SDS011;21185;50.978;13.720;2022-09-21T10:15:37;4.10;;;1.40;;
34978;SDS011;21185;50.978;13.720;2022-09-21T10:20:51;2.17;;;1.15;;
34978;SDS011;21185;50.978;13.720;2022-09-21T10:26:04;4.78;;;1.23;;
34978;SDS011;21185;50.978;13.720;2022-09-21T10:31:11;3.58;;;1.30;;
34978;SDS011;21185;50.978;13.720;2022-09-21T10:36:25;3.25;;;1.00;;
34978;SDS011;21185;50.978;13.720;2022-09-21T10:41:36;2.33;;;1.27;;
34978;SDS011;21185;50.978;13.720;2022-09-21T10:46:38;2.53;;;1.10;;
34978;SDS011;21185;50.978;13.720;2022-09-21T10:51:40;2.20;;;0.90;;
34978;SDS011;21185;50.978;13.720;2022-09-21T10:56:54;1.10;;;0.90;;
34978;SDS011;21185;50.978;13.720;2022-09-21T11:17:52;1.35;;;0.85;;
34978;SDS011;21185;50.978;13.720;2022-09-21T11:39:39;2.22;;;1.00;;
34978;SDS011;21185;50.978;13.720;2022-09-21T11:44:50;0.95;;;0.85;;
34978;SDS011;21185;50.978;13.720;2022-09-21T12:07:22;1.83;;;0.70;;
34978;SDS011;21185;50.978;13.720;2022-09-21T12:12:18;0.85;;;0.77;;
34978;SDS011;21185;50.978;13.720;2022-09-21T12:22:36;2.10;;;1.10;;
34978;SDS011;21185;50.978;13.720;2022-09-21T12:32:56;1.63;;;0.60;;
34978;SDS011;21185;50.978;13.720;2022-09-21T12:43:48;0.68;;;0.60;;
34978;SDS011;21185;50.978;13.720;2022-09-21T12:48:58;1.05;;;0.88;;
34978;SDS011;21185;50.978;13.720;2022-09-21T12:54:07;3.13;;;1.45;;
34978;SDS011;21185;50.978;13.720;2022-09-21T13:04:43;1.70;;;0.80;;
34978;SDS011;21185;50.978;13.720;2022-09-21T13:09:46;1.20;;;0.88;;
34978;SDS011;21185;50.978;13.720;2022-09-21T13:14:58;2.38;;;0.70;;
34978;SDS011;21185;50.978;13.720;2022-09-21T13:20:06;0.88;;;0.70;;
34978;SDS011;21185;50.978;13.720;2022-09-21T13:25:21;1.67;;;0.63;;
34978;SDS011;21185;50.978;13.720;2022-09-21T13:40:49;1.83;;;0.88;;
34978;SDS011;21185;50.978;13.720;2022-09-21T13:51:54;1.75;;;1.10;;
34978;SDS011;21185;50.978;13.720;2022-09-21T14:02:33;0.95;;;0.70;;
34978;SDS011;21185;50.978;13.720;2022-09-21T14:07:40;1.13;;;0.57;;
34978;SDS011;21185;50.978;13.720;2022-09-21T14:12:42;2.30;;;0.80;;
34978;SDS011;21185;50.978;13.720;2022-09-21T14:33:41;0.73;;;0.60;;
34978;SDS011;21185;50.978;13.720;2022-09-21T14:38:59;1.92;;;0.80;;
34978;SDS011;21185;50.978;13.720;2022-09-21T14:44:03;1.48;;;0.77;;
34978;SDS011;21185;50.978;13.720;2022-09-21T14:54:53;4.00;;;1.17;;
34978;SDS011;21185;50.978;13.720;2022-09-21T15:00:05;2.65;;;0.98;;
34978;SDS011;21185;50.978;13.720;2022-09-21T15:05:36;1.23;;;0.70;;
34978;SDS011;21185;50.978;13.720;2022-09-21T15:10:49;1.48;;;0.90;;
34978;SDS011;21185;50.978;13.720;2022-09-21T15:21:28;1.23;;;0.77;;
34978;SDS011;21185;50.978;13.720;2022-09-21T15:26:33;1.58;;;0.70;;
34978;SDS011;21185;50.978;13.720;2022-09-21T15:31:35;2.00;;;1.00;;
34978;SDS011;21185;50.978;13.720;2022-09-21T15:36:40;3.25;;;1.02;;
34978;SDS011;21185;50.978;13.720;2022-09-21T15:41:44;1.98;;;0.75;;
34978;SDS011;21185;50.978;13.720;2022-09-21T15:46:51;1.20;;;1.00;;
34978;SDS011;21185;50.978;13.720;2022-09-21T15:52:07;2.85;;;0.80;;
34978;SDS011;21185;50.978;13.720;2022-09-21T16:03:05;3.78;;;1.30;;
34978;SDS011;21185;50.978;13.720;2022-09-21T16:13:38;2.97;;;1.75;;
34978;SDS011;21185;50.978;13.720;2022-09-21T16:18:59;3.13;;;2.00;;
34978;SDS011;21185;50.978;13.720;2022-09-21T16:24:08;2.08;;;1.50;;
34978;SDS011;21185;50.978;13.720;2022-09-21T16:29:20;2.08;;;1.27;;
34978;SDS011;21185;50.978;13.720;2022-09-21T16:34:30;3.20;;;1.30;;
34978;SDS011;21185;50.978;13.720;2022-09-21T16:39:35;4.93;;;1.50;;
34978;SDS011;21185;50.978;13.720;2022-09-21T16:44:37;2.20;;;1.38;;
34978;SDS011;21185;50.978;13.720;2022-09-21T16:49:45;5.65;;;1.75;;
34978;SDS011;21185;50.978;13.720;2022-09-21T16:54:46;7.18;;;1.95;;
34978;SDS011;21185;50.978;13.720;2022-09-21T16:59:50;5.82;;;2.42;;
34978;SDS011;21185;50.978;13.720;2022-09-21T17:04:52;5.97;;;2.15;;
34978;SDS011;21185;50.978;13.720;2022-09-21T17:09:54;7.00;;;2.17;;
34978;SDS011;21185;50.978;13.720;2022-09-21T17:14:56;4.72;;;2.65;;
34978;SDS011;21185;50.978;13.720;2022-09-21T17:20:01;2.65;;;1.95;;
34978;SDS011;21185;50.978;13.720;2022-09-21T17:25:07;3.28;;;1.92;;
34978;SDS011;21185;50.978;13.720;2022-09-21T17:30:10;7.38;;;3.10;;
34978;SDS011;21185;50.978;13.720;2022-09-21T17:35:32;5.18;;;2.38;;
34978;SDS011;21185;50.978;13.720;2022-09-21T17:40:39;3.03;;;2.05;;
34978;SDS011;21185;50.978;13.720;2022-09-21T17:51:05;5.57;;;2.10;;
34978;SDS011;21185;50.978;13.720;2022-09-21T17:56:30;3.53;;;1.80;;
34978;SDS011;21185;50.978;13.720;2022-09-21T18:01:34;3.55;;;2.10;;
34978;SDS011;21185;50.978;13.720;2022-09-21T18:06:40;2.83;;;1.60;;
34978;SDS011;21185;50.978;13.720;2022-09-21T18:22:02;5.32;;;2.17;;
34978;SDS011;21185;50.978;13.720;2022-09-21T18:27:23;4.45;;;1.85;;
34978;SDS011;21185;50.978;13.720;2022-09-21T18:32:48;6.53;;;2.30;;
34978;SDS011;21185;50.978;13.720;2022-09-21T18:43:43;6.50;;;3.10;;
34978;SDS011;21185;50.978;13.720;2022-09-21T18:49:02;5.60;;;3.42;;
34978;SDS011;21185;50.978;13.720;2022-09-21T18:54:19;2.85;;;2.03;;
34978;SDS011;21185;50.978;13.720;2022-09-21T18:59:23;3.53;;;1.65;;
34978;SDS011;21185;50.978;13.720;2022-09-21T19:04:32;4.20;;;2.10;;
34978;SDS011;21185;50.978;13.720;2022-09-21T19:25:41;3.30;;;2.42;;
34978;SDS011;21185;50.978;13.720;2022-09-21T19:30:51;15.60;;;2.83;;
34978;SDS011;21185;50.978;13.720;2022-09-21T19:36:01;5.68;;;3.28;;
34978;SDS011;21185;50.978;13.720;2022-09-21T19:41:04;9.75;;;2.78;;
34978;SDS011;21185;50.978;13.720;2022-09-21T19:51:49;5.25;;;2.97;;
34978;SDS011;21185;50.978;13.720;2022-09-21T19:56:52;11.95;;;4.78;;
34978;SDS011;21185;50.978;13.720;2022-09-21T20:02:24;20.45;;;7.85;;
34978;SDS011;21185;50.978;13.720;2022-09-21T20:12:53;9.20;;;4.32;;
34978;SDS011;21185;50.978;13.720;2022-09-21T20:18:09;6.43;;;2.90;;
34978;SDS011;21185;50.978;13.720;2022-09-21T20:23:12;5.38;;;2.58;;
34978;SDS011;21185;50.978;13.720;2022-09-21T20:28:14;4.68;;;2.53;;
34978;SDS011;21185;50.978;13.720;2022-09-21T20:33:17;4.55;;;2.30;;
34978;SDS011;21185;50.978;13.720;2022-09-21T20:38:23;6.47;;;1.85;;
34978;SDS011;21185;50.978;13.720;2022-09-21T20:43:25;3.35;;;2.20;;
34978;SDS011;21185;50.978;13.720;2022-09-21T20:48:33;8.18;;;3.65;;
34978;SDS011;21185;50.978;13.720;2022-09-21T20:53:34;10.77;;;5.15;;
34978;SDS011;21185;50.978;13.720;2022-09-21T20:58:36;18.13;;;9.05;;
34978;SDS011;21185;50.978;13.720;2022-09-21T21:03:38;15.10;;;8.43;;
34978;SDS011;21185;50.978;13.720;2022-09-21T21:08:40;10.70;;;5.93;;
34978;SDS011;21185;50.978;13.720;2022-09-21T21:13:42;5.18;;;2.55;;
34978;SDS011;21185;50.978;13.720;2022-09-21T21:18:44;3.15;;;2.03;;
34978;SDS011;21185;50.978;13.720;2022-09-21T21:23:49;3.13;;;2.25;;
34978;SDS011;21185;50.978;13.720;2022-09-21T21:29:10;4.25;;;2.47;;
34978;SDS011;21185;50.978;13.720;2022-09-21T21:34:12;3.83;;;1.95;;
34978;SDS011;21185;50.978;13.720;2022-09-21T21:39:14;2.45;;;1.67;;
34978;SDS011;21185;50.978;13.720;2022-09-21T21:44:16;1.90;;;1.38;;
34978;SDS011;21185;50.978;13.720;2022-09-21T21:49:18;4.28;;;1.70;;
34978;SDS011;21185;50.978;13.720;2022-09-21T21:54:21;2.30;;;1.50;;
34978;SDS011;21185;50.978;13.720;2022-09-21T21:59:24;3.50;;;1.67;;
34978;SDS011;21185;50.978;13.720;2022-09-21T22:04:26;6.07;;;1.70;;
34978;SDS011;21185;50.978;13.720;2022-09-21T22:09:28;2.95;;;1.75;;
34978;SDS011;21185;50.978;13.720;2022-09-21T22:14:30;2.28;;;1.27;;
34978;SDS011;21185;50.978;13.720;2022-09-21T22:19:32;2.67;;;1.40;;
34978;SDS011;21185;50.978;13.720;2022-09-21T22:24:34;3.75;;;1.92;;
34978;SDS011;21185;50.978;13.720;2022-09-21T22:29:35;6.82;;;2.28;;
34978;SDS011;21185;50.978;13.720;2022-09-21T22:34:37;6.22;;;2.80;;
34978;SDS011;21185;50.978;13.720;2022-09-21T22:39:39;8.52;;;2.67;;
34978;SDS011;21185;50.978;13.720;2022-09-21T22:44:43;9.10;;;2.88;;
34978;SDS011;21185;50.978;13.720;2022-09-21T22:49:44;5.00;;;2.60;;
34978;SDS011;21185;50.978;13.720;2022-09-21T22:54:46;12.65;;;2.53;;
34978;SDS011;21185;50.978;13.720;2022-09-21T22:59:48;3.97;;;2.10;;
34978;SDS011;21185;50.978;13.720;2022-09-21T23:04:50;4.93;;;2.47;;
34978;SDS011;21185;50.978;13.720;2022-09-21T23:09:52;6.75;;;2.40;;
34978;SDS011;21185;50.978;13.720;2022-09-21T23:14:54;4.68;;;2.35;;
34978;SDS011;21185;50.978;13.720;2022-09-21T23:19:56;5.47;;;2.28;;
34978;SDS011;21185;50.978;13.720;2022-09-21T23:24:57;5.25;;;2.35;;
34978;SDS011;21185;50.978;13.720;2022-09-21T23:30:02;5.35;;;2.30;;
34978;SDS011;21185;50.978;13.720;2022-09-21T23:35:04;4.28;;;2.28;;
34978;SDS011;21185;50.978;13.720;2022-09-21T23:40:06;4.95;;;1.98;;
34978;SDS011;21185;50.978;13.720;2022-09-21T23:45:09;4.05;;;2.00;;
34978;SDS011;21185;50.978;13.720;2022-09-21T23:50:11;4.05;;;2.05;;
34978;SDS011;21185;50.978;13.720;2022-09-21T23:55:12;3.75;;;2.00;;
